Time;durP1;ratioP1;P1;durP2;ratioP2;P2;SDS_P1;SDS_P2;PMS_P1;PMS_P2;Temp;Humidity;BMP_temperature;BMP_pressure;BME280_temperature;BME280_humidity;BME280_pressure;Samples;Min_cycle;Max_cycle;Signal;HPM_P1;HPM_P2
2024/03/22 00:00:40;;;;;;;26.83;16.80;;;7.40;1.00;;;;;;5070326;28;20544;-82
2024/03/22 00:03:29;;;;;;;23.80;17.35;;;7.40;33.90;;;;;;5065550;28;20048;-82
2024/03/22 00:06:16;;;;;;;27.10;17.75;;;7.40;99.90;;;;;;5061531;28;20397;-80
2024/03/22 00:09:03;;;;;;;29.17;18.00;;;7.50;99.90;;;;;;5071098;28;20423;-81
2024/03/22 00:11:50;;;;;;;24.42;18.25;;;7.50;99.90;;;;;;5080229;28;20059;-81
2024/03/22 00:14:36;;;;;;;25.20;15.75;;;7.50;99.90;;;;;;5059207;28;20043;-82
2024/03/22 00:17:22;;;;;;;25.33;16.65;;;7.50;99.90;;;;;;5075849;28;20044;-83
2024/03/22 00:20:09;;;;;;;27.40;16.90;;;7.40;99.90;;;;;;5076949;28;20048;-83
2024/03/22 00:22:55;;;;;;;23.00;17.02;;;7.40;99.90;;;;;;5076451;28;20047;-80
2024/03/22 00:25:41;;;;;;;25.02;17.67;;;7.40;99.90;;;;;;5076701;28;20040;-82
2024/03/22 00:28:28;;;;;;;27.42;17.65;;;7.40;1.00;;;;;;5064456;28;20040;-83
2024/03/22 00:31:14;;;;;;;24.23;16.77;;;7.40;1.00;;;;;;5076773;28;20252;-80
2024/03/22 00:34:00;;;;;;;25.48;17.35;;;7.20;1.00;;;;;;5075648;28;20054;-83
2024/03/22 00:36:47;;;;;;;27.98;17.45;;;7.10;1.00;;;;;;5089168;28;20220;-82
2024/03/22 00:39:35;;;;;;;36.00;18.55;;;7.00;1.00;;;;;;5098816;28;20048;-81
2024/03/22 00:42:21;;;;;;;24.92;17.52;;;6.80;1.00;;;;;;5085161;28;20119;-82
2024/03/22 00:45:08;;;;;;;34.25;19.13;;;6.70;33.20;;;;;;5057301;28;20036;-81
2024/03/22 00:47:55;;;;;;;27.58;18.25;;;6.70;99.90;;;;;;5083626;28;20044;-82
2024/03/22 00:50:41;;;;;;;28.80;18.38;;;6.80;99.90;;;;;;5060532;28;20478;-78
2024/03/22 00:53:27;;;;;;;31.55;19.15;;;6.90;99.90;;;;;;5072964;28;20059;-82
2024/03/22 00:56:13;;;;;;;30.85;19.88;;;6.90;99.90;;;;;;5074569;28;20497;-82
2024/03/22 00:59:00;;;;;;;25.92;18.90;;;6.90;1.00;;;;;;5073020;28;20113;-81
2024/03/22 01:01:46;;;;;;;28.70;18.92;;;6.90;1.00;;;;;;5066725;28;20042;-81
2024/03/22 01:04:33;;;;;;;27.55;18.27;;;6.90;1.00;;;;;;5074380;28;20070;-80
2024/03/22 01:07:19;;;;;;;34.28;18.55;;;6.90;1.00;;;;;;5073964;28;20048;-79
2024/03/22 01:10:06;;;;;;;27.08;17.88;;;6.90;1.00;;;;;;5073142;28;20037;-81
2024/03/22 01:12:53;;;;;;;34.90;19.13;;;6.90;1.00;;;;;;5082187;28;20081;-81
2024/03/22 01:15:39;;;;;;;33.17;18.70;;;7.00;1.00;;;;;;5072260;28;20048;-83
2024/03/22 01:18:25;;;;;;;26.60;17.75;;;7.00;1.00;;;;;;5081071;28;20069;-81
2024/03/22 01:21:11;;;;;;;31.90;18.20;;;7.10;1.00;;;;;;5067445;28;20041;-81
2024/03/22 01:23:59;;;;;;;32.65;19.42;;;7.10;1.00;;;;;;5073888;28;20071;-83
2024/03/22 01:26:45;;;;;;;28.02;18.02;;;7.20;1.00;;;;;;5074944;28;20093;-81
2024/03/22 01:29:31;;;;;;;30.77;19.00;;;7.10;99.90;;;;;;5073257;28;20471;-80
2024/03/22 01:32:17;;;;;;;27.23;18.85;;;7.10;99.90;;;;;;5075423;28;20044;-83
2024/03/22 01:35:04;;;;;;;33.97;19.38;;;7.00;99.90;;;;;;5074973;28;20058;-82
2024/03/22 01:37:50;;;;;;;32.15;19.10;;;7.00;99.90;;;;;;5073793;28;20074;-82
2024/03/22 01:40:37;;;;;;;36.72;19.75;;;6.90;99.90;;;;;;5073384;28;20048;-81
2024/03/22 01:43:23;;;;;;;33.17;20.20;;;6.90;99.90;;;;;;5074307;28;20044;-81
2024/03/22 01:46:10;;;;;;;28.17;19.17;;;6.90;99.90;;;;;;5074098;28;20048;-82
2024/03/22 01:48:56;;;;;;;31.27;19.30;;;6.70;99.90;;;;;;5074595;28;20715;-81
2024/03/22 01:51:43;;;;;;;34.58;18.90;;;6.50;99.90;;;;;;5080167;28;20066;-80
2024/03/22 01:54:30;;;;;;;28.35;19.75;;;6.40;99.90;;;;;;5082663;28;20048;-82
2024/03/22 01:57:16;;;;;;;32.55;20.80;;;6.30;99.90;;;;;;5067983;28;20046;-80
2024/03/22 02:00:03;;;;;;;34.83;21.15;;;6.30;99.90;;;;;;5096233;28;20508;-79
2024/03/22 02:02:49;;;;;;;35.92;21.50;;;6.30;99.90;;;;;;5078347;28;20046;-84
2024/03/22 02:05:35;;;;;;;32.45;20.85;;;6.10;99.90;;;;;;5088949;28;20044;-83
2024/03/22 02:08:22;;;;;;;34.75;21.60;;;6.10;1.00;;;;;;5094275;28;20039;-83
2024/03/22 02:11:09;;;;;;;39.25;23.27;;;6.00;1.00;;;;;;5093261;28;20046;-80
2024/03/22 02:13:55;;;;;;;39.58;23.15;;;6.00;27.80;;;;;;5071963;28;20044;-81
2024/03/22 02:16:41;;;;;;;43.20;22.17;;;6.00;99.90;;;;;;5092616;28;20052;-81
2024/03/22 02:19:28;;;;;;;36.63;21.88;;;5.90;99.90;;;;;;5081318;28;20050;-81
2024/03/22 02:22:14;;;;;;;36.13;21.48;;;5.80;99.90;;;;;;5087217;28;20036;-81
2024/03/22 02:25:00;;;;;;;38.33;23.13;;;5.70;99.90;;;;;;5082167;28;20040;-80
2024/03/22 02:27:50;;;;;;;36.97;22.67;;;5.60;99.90;;;;;;5076904;28;20067;-80
2024/03/22 02:30:36;;;;;;;38.05;22.98;;;5.50;99.90;;;;;;5070694;28;20048;-80
2024/03/22 02:33:22;;;;;;;35.53;23.80;;;5.40;1.00;;;;;;5074072;28;20052;-80
2024/03/22 02:36:09;;;;;;;42.58;24.77;;;5.50;52.60;;;;;;5077687;28;20043;-81
2024/03/22 02:38:55;;;;;;;46.00;27.40;;;5.70;99.90;;;;;;5083174;28;20048;-81
2024/03/22 02:41:41;;;;;;;39.78;24.70;;;5.70;1.00;;;;;;5084007;28;20504;-81
2024/03/22 02:44:28;;;;;;;40.60;24.42;;;5.80;1.00;;;;;;5068148;28;20411;-79
2024/03/22 02:47:15;;;;;;;36.67;23.58;;;5.80;99.90;;;;;;5080582;28;20071;-79
2024/03/22 02:50:01;;;;;;;35.92;23.95;;;5.70;99.90;;;;;;5081217;28;20046;-79
2024/03/22 02:52:51;;;;;;;33.88;22.98;;;5.60;99.90;;;;;;5072095;28;20139;-81
2024/03/22 02:55:38;;;;;;;38.83;23.50;;;5.60;99.90;;;;;;5081088;28;20480;-82
2024/03/22 02:58:25;;;;;;;33.58;23.45;;;5.50;1.00;;;;;;5070162;28;20416;-82
2024/03/22 03:01:11;;;;;;;39.53;23.88;;;5.50;1.00;;;;;;5058615;28;20048;-82
2024/03/22 03:03:57;;;;;;;39.33;24.98;;;5.50;99.90;;;;;;5071593;28;20051;-82
2024/03/22 03:06:45;;;;;;;45.80;25.73;;;5.50;99.90;;;;;;5077069;28;20462;-80
2024/03/22 03:09:32;;;;;;;43.72;26.92;;;5.70;21.80;;;;;;5082575;28;20036;-82
2024/03/22 03:12:18;;;;;;;40.63;25.33;;;5.60;99.90;;;;;;5072619;28;20059;-80
2024/03/22 03:15:05;;;;;;;40.75;25.45;;;5.60;99.90;;;;;;5082473;28;20074;-82
2024/03/22 03:17:51;;;;;;;44.35;27.08;;;5.70;1.00;;;;;;5056519;28;20055;-81
2024/03/22 03:20:38;;;;;;;42.08;27.27;;;6.00;1.00;;;;;;5093613;28;20040;-80
2024/03/22 03:23:24;;;;;;;41.67;26.00;;;6.20;99.90;;;;;;5098870;28;20036;-80
2024/03/22 03:26:10;;;;;;;42.08;27.02;;;6.40;1.00;;;;;;5086320;28;20044;-81
2024/03/22 03:28:57;;;;;;;41.28;24.83;;;6.60;1.00;;;;;;5087465;28;20119;-80
2024/03/22 03:31:43;;;;;;;38.72;22.55;;;6.90;1.00;;;;;;5089836;28;20091;-80
2024/03/22 03:34:29;;;;;;;35.10;20.88;;;7.10;99.90;;;;;;5073849;28;20074;-81
2024/03/22 03:37:15;;;;;;;33.90;19.83;;;7.20;99.90;;;;;;5073744;28;20531;-82
2024/03/22 03:40:02;;;;;;;35.60;18.90;;;7.20;99.90;;;;;;5072225;28;20496;-81
2024/03/22 03:42:48;;;;;;;31.15;17.98;;;7.20;1.00;;;;;;5073863;28;20505;-82
2024/03/22 03:45:37;;;;;;;29.25;19.38;;;7.20;5.10;;;;;;5084735;28;20040;-81
2024/03/22 03:48:24;;;;;;;28.92;18.35;;;7.20;99.90;;;;;;5072332;28;20127;-81
2024/03/22 03:51:13;;;;;;;27.58;18.05;;;7.20;94.10;;;;;;5063968;28;20454;-80
2024/03/22 03:53:59;;;;;;;27.60;17.92;;;7.30;1.00;;;;;;5077806;28;20048;-81
2024/03/22 03:56:46;;;;;;;28.48;17.77;;;7.20;99.90;;;;;;5081102;28;20048;-81
2024/03/22 03:59:32;;;;;;;34.92;18.48;;;7.20;99.90;;;;;;5078197;28;20044;-80
2024/03/22 04:02:18;;;;;;;27.85;17.52;;;7.20;1.00;;;;;;5076896;28;20048;-81
2024/03/22 04:05:05;;;;;;;31.52;17.00;;;7.20;1.00;;;;;;5077280;28;20055;-82
2024/03/22 04:07:51;;;;;;;27.92;18.23;;;7.20;1.00;;;;;;5076602;28;20050;-80
2024/03/22 04:10:37;;;;;;;28.58;17.35;;;7.20;99.90;;;;;;5077149;28;20054;-81
2024/03/22 04:13:24;;;;;;;31.75;17.80;;;7.20;99.90;;;;;;5077676;28;20048;-81
2024/03/22 04:16:14;;;;;;;25.25;17.25;;;7.20;99.90;;;;;;5077247;28;20067;-82
2024/03/22 04:19:00;;;;;;;28.70;17.23;;;7.20;99.90;;;;;;5077611;28;20540;-80
2024/03/22 04:21:47;;;;;;;25.63;16.15;;;7.30;99.90;;;;;;5082181;28;20060;-81
2024/03/22 04:24:33;;;;;;;26.63;16.08;;;7.40;66.90;;;;;;5086073;28;20040;-79
2024/03/22 04:27:19;;;;;;;29.58;16.83;;;7.40;1.00;;;;;;5071807;28;20058;-80
2024/03/22 04:30:08;;;;;;;23.92;16.10;;;7.50;1.00;;;;;;5085203;28;20044;-83
2024/03/22 04:32:54;;;;;;;27.10;16.10;;;7.60;1.00;;;;;;5083911;28;20054;-82
2024/03/22 04:35:45;;;;;;;28.08;16.38;;;7.60;99.90;;;;;;5077798;28;20044;-82
2024/03/22 04:38:32;;;;;;;26.50;17.40;;;7.70;99.90;;;;;;5089504;28;20046;-82
2024/03/22 04:41:18;;;;;;;26.45;15.75;;;7.70;99.90;;;;;;5091606;28;20055;-82
2024/03/22 04:44:04;;;;;;;22.48;15.25;;;7.80;99.90;;;;;;5081602;28;20047;-81
2024/03/22 04:46:51;;;;;;;27.10;15.75;;;7.80;57.40;;;;;;5075982;28;20036;-81
2024/03/22 04:49:37;;;;;;;27.13;16.30;;;7.80;1.00;;;;;;5078495;28;20044;-82
2024/03/22 04:52:23;;;;;;;26.50;16.67;;;7.80;1.00;;;;;;5077061;28;20044;-82
2024/03/22 04:55:10;;;;;;;29.20;17.50;;;7.80;1.00;;;;;;5077513;28;20573;-82
2024/03/22 04:57:56;;;;;;;26.48;15.98;;;7.80;1.00;;;;;;5075639;28;20066;-81
2024/03/22 05:00:43;;;;;;;25.63;15.82;;;7.70;1.00;;;;;;5077439;28;20048;-81
2024/03/22 05:03:30;;;;;;;24.65;16.02;;;7.70;1.00;;;;;;5070360;28;20051;-82
2024/03/22 05:06:16;;;;;;;26.75;15.68;;;7.60;1.00;;;;;;5079012;28;20051;-81
2024/03/22 05:09:03;;;;;;;27.75;15.82;;;7.60;1.00;;;;;;5075685;28;20046;-79
2024/03/22 05:11:50;;;;;;;27.08;16.58;;;7.60;1.00;;;;;;5085455;28;20103;-81
2024/03/22 05:14:37;;;;;;;27.88;16.30;;;7.50;1.00;;;;;;5077841;28;20048;-82
2024/03/22 05:17:23;;;;;;;24.80;15.73;;;7.50;1.00;;;;;;5076994;28;20044;-81
2024/03/22 05:20:10;;;;;;;22.55;15.40;;;7.50;1.00;;;;;;5063268;28;20048;-83
2024/03/22 05:22:57;;;;;;;22.95;15.75;;;7.60;1.00;;;;;;5074794;28;20554;-80
2024/03/22 05:25:43;;;;;;;24.80;15.63;;;7.60;1.00;;;;;;5076761;28;20127;-81
2024/03/22 05:28:30;;;;;;;29.13;16.27;;;7.60;1.00;;;;;;5060033;28;20078;-81
2024/03/22 05:31:16;;;;;;;26.17;16.02;;;7.50;1.00;;;;;;5071781;28;20044;-82
2024/03/22 05:34:03;;;;;;;28.33;16.25;;;7.40;1.00;;;;;;5081763;28;20386;-81
2024/03/22 05:36:50;;;;;;;26.45;17.25;;;7.40;1.00;;;;;;5078792;28;20083;-81
2024/03/22 05:39:36;;;;;;;28.63;16.17;;;7.30;1.00;;;;;;5082973;28;20048;-82
2024/03/22 05:42:23;;;;;;;27.42;15.90;;;7.20;1.00;;;;;;5083775;28;20040;-83
2024/03/22 05:45:09;;;;;;;27.73;17.20;;;7.20;1.00;;;;;;5079355;28;20124;-81
2024/03/22 05:47:56;;;;;;;29.33;16.92;;;7.20;17.30;;;;;;5085212;28;20040;-81
2024/03/22 05:50:42;;;;;;;28.88;16.85;;;7.20;72.20;;;;;;5062818;28;20039;-82
2024/03/22 05:53:28;;;;;;;29.98;17.58;;;7.30;98.80;;;;;;5077210;28;20101;-82
2024/03/22 05:56:15;;;;;;;24.13;17.45;;;7.20;99.70;;;;;;5077894;28;20040;-82
2024/03/22 05:59:01;;;;;;;29.48;17.92;;;7.10;99.90;;;;;;5077003;28;20048;-79
2024/03/22 06:01:48;;;;;;;28.48;17.75;;;7.00;99.90;;;;;;5077642;28;20054;-81
2024/03/22 06:04:34;;;;;;;27.95;17.38;;;7.00;99.90;;;;;;5078380;28;20055;-82
2024/03/22 06:07:20;;;;;;;31.75;18.92;;;7.10;99.90;;;;;;5063990;28;20062;-82
2024/03/22 06:10:08;;;;;;;33.75;19.73;;;7.20;99.90;;;;;;5074145;28;20048;-83
2024/03/22 06:12:54;;;;;;;23.80;17.48;;;7.20;99.90;;;;;;5077671;28;20044;-83
2024/03/22 06:15:45;;;;;;;24.98;17.45;;;7.30;99.90;;;;;;5075635;28;20052;-79
2024/03/22 06:18:31;;;;;;;32.40;17.67;;;7.30;99.90;;;;;;5082570;28;20047;-82
2024/03/22 06:21:25;;;;;;;25.65;17.58;;;7.40;99.90;;;;;;5076907;28;20458;-81
2024/03/22 06:24:11;;;;;;;26.38;16.23;;;7.60;99.90;;;;;;5071535;28;20048;-80
2024/03/22 06:26:58;;;;;;;25.13;15.25;;;7.80;99.90;;;;;;5081343;28;20069;-81
2024/03/22 06:29:44;;;;;;;26.60;16.40;;;8.10;99.90;;;;;;5074456;28;20052;-82
2024/03/22 06:32:30;;;;;;;25.00;15.15;;;8.40;99.90;;;;;;5073692;28;20123;-83
2024/03/22 06:35:17;;;;;;;25.60;14.40;;;8.50;1.00;;;;;;5074740;28;20052;-81
2024/03/22 06:38:04;;;;;;;23.75;14.60;;;8.50;1.00;;;;;;5081079;28;20048;-80
2024/03/22 06:40:50;;;;;;;22.08;14.40;;;8.60;99.90;;;;;;5092159;28;20048;-80
2024/03/22 06:43:36;;;;;;;22.20;15.18;;;8.60;99.90;;;;;;5091862;28;20048;-78
2024/03/22 06:46:22;;;;;;;27.05;15.57;;;8.70;99.90;;;;;;5089317;28;20039;-83
2024/03/22 06:49:09;;;;;;;21.05;14.05;;;8.90;99.90;;;;;;5088981;28;20040;-82
2024/03/22 06:51:55;;;;;;;22.85;14.18;;;9.10;99.90;;;;;;5091859;28;20077;-79
2024/03/22 06:54:42;;;;;;;23.30;13.18;;;9.20;11.10;;;;;;5088624;28;20385;-81
2024/03/22 06:57:28;;;;;;;23.40;13.63;;;9.20;1.00;;;;;;5077663;28;20048;-77
2024/03/22 07:00:16;;;;;;;23.10;13.40;;;9.30;1.00;;;;;;5082899;28;20519;-80
2024/03/22 07:03:05;;;;;;;22.33;13.93;;;9.50;1.00;;;;;;5078230;28;20040;-81
2024/03/22 07:05:51;;;;;;;20.30;13.05;;;9.70;99.90;;;;;;5087434;28;20044;-81
2024/03/22 07:08:38;;;;;;;21.10;13.00;;;9.90;99.90;;;;;;5074350;28;20058;-82
2024/03/22 07:11:24;;;;;;;20.67;13.02;;;10.10;99.90;;;;;;5072493;28;20058;-82
2024/03/22 07:14:11;;;;;;;27.73;13.15;;;10.20;99.90;;;;;;5085983;28;20044;-81
2024/03/22 07:16:57;;;;;;;22.30;12.68;;;10.30;99.90;;;;;;5058286;28;20051;-82
2024/03/22 07:19:44;;;;;;;23.35;13.60;;;10.30;99.90;;;;;;5085606;28;20530;-80
2024/03/22 07:22:33;;;;;;;22.55;12.90;;;10.50;99.90;;;;;;5076808;28;20040;-83
2024/03/22 07:25:19;;;;;;;23.58;11.88;;;10.70;99.90;;;;;;5075646;28;20501;-82
2024/03/22 07:28:05;;;;;;;20.65;12.05;;;11.00;67.10;;;;;;5088933;28;20048;-78
2024/03/22 07:30:52;;;;;;;19.75;11.65;;;11.30;13.00;;;;;;5089976;28;20036;-81
2024/03/22 07:33:44;;;;;;;17.23;11.45;;;11.60;1.00;;;;;;5094867;28;20116;-82
2024/03/22 07:36:30;;;;;;;15.80;11.90;;;11.90;1.00;;;;;;5098977;28;20127;-83
2024/03/22 07:39:17;;;;;;;15.02;11.02;;;12.10;1.00;;;;;;5085280;28;20065;-78
2024/03/22 07:42:05;;;;;;;19.30;12.05;;;12.40;1.00;;;;;;5099428;28;20092;-82
2024/03/22 07:44:51;;;;;;;19.38;11.75;;;12.70;99.90;;;;;;5065989;28;20511;-81
2024/03/22 07:47:38;;;;;;;20.52;11.57;;;13.00;99.90;;;;;;5092923;28;20056;-82
2024/03/22 07:50:24;;;;;;;17.10;10.80;;;13.30;99.90;;;;;;5076248;28;20040;-82
2024/03/22 07:53:13;;;;;;;17.30;11.52;;;13.50;99.90;;;;;;5089532;28;20040;-79
2024/03/22 07:56:09;;;;;;;17.38;11.80;;;13.60;99.90;;;;;;5091814;28;20036;-83
2024/03/22 07:58:56;;;;;;;18.85;11.35;;;13.80;99.90;;;;;;5094782;28;20069;-82
2024/03/22 08:01:43;;;;;;;17.05;10.90;;;13.90;99.90;;;;;;5088096;28;20055;-82
2024/03/22 08:04:29;;;;;;;17.63;11.50;;;14.20;99.90;;;;;;5060211;28;20052;-83
2024/03/22 08:07:16;;;;;;;17.92;10.15;;;14.60;99.90;;;;;;5085969;28;20044;-81
2024/03/22 08:10:04;;;;;;;22.90;12.18;;;15.10;99.90;;;;;;5092193;28;20044;-81
2024/03/22 08:12:50;;;;;;;16.40;10.10;;;15.20;99.90;;;;;;5087664;28;20081;-82
2024/03/22 08:15:37;;;;;;;15.93;9.90;;;15.50;99.90;;;;;;5092062;28;20092;-79
2024/03/22 08:18:23;;;;;;;13.50;8.88;;;15.70;99.90;;;;;;5096670;28;20044;-80
2024/03/22 08:21:10;;;;;;;14.68;9.02;;;15.40;99.90;;;;;;5088685;28;20048;-84
2024/03/22 08:23:56;;;;;;;17.15;9.60;;;15.70;99.90;;;;;;5077719;28;20127;-82
2024/03/22 08:26:46;;;;;;;13.95;9.15;;;16.10;99.90;;;;;;5090060;28;20044;-80
2024/03/22 08:29:33;;;;;;;16.27;8.55;;;16.40;99.90;;;;;;5090467;28;20443;-83
2024/03/22 08:32:19;;;;;;;15.30;8.82;;;16.90;99.90;;;;;;5089805;28;20477;-82
2024/03/22 08:35:06;;;;;;;12.48;8.30;;;16.90;81.40;;;;;;5090259;28;20050;-82
2024/03/22 08:37:53;;;;;;;13.52;8.93;;;17.20;73.00;;;;;;5096051;28;20103;-83
2024/03/22 08:40:39;;;;;;;16.75;8.90;;;17.30;49.90;;;;;;5092671;28;20039;-81
2024/03/22 08:43:27;;;;;;;16.15;8.45;;;17.10;43.10;;;;;;5101570;28;20043;-79
2024/03/22 08:46:16;;;;;;;11.68;7.32;;;17.30;31.20;;;;;;5087645;28;20302;-84
2024/03/22 08:49:02;;;;;;;10.98;6.78;;;17.50;23.80;;;;;;5069761;28;20047;-81
2024/03/22 08:51:49;;;;;;;12.25;7.50;;;17.50;18.20;;;;;;5074858;28;20032;-83
2024/03/22 08:54:36;;;;;;;10.20;7.78;;;17.90;15.10;;;;;;5070099;28;20040;-83
2024/03/22 08:57:22;;;;;;;13.45;7.53;;;18.00;4.00;;;;;;5075410;28;20130;-82
2024/03/22 09:00:10;;;;;;;13.57;7.85;;;18.00;1.00;;;;;;5084136;28;20082;-82
2024/03/22 09:03:01;;;;;;;13.18;7.45;;;18.10;1.00;;;;;;5079225;28;20051;-81
2024/03/22 09:05:52;;;;;;;11.57;6.97;;;18.00;1.00;;;;;;5073838;28;20047;-81
2024/03/22 09:08:38;;;;;;;11.52;7.57;;;18.80;1.00;;;;;;5072532;28;20571;-84
2024/03/22 09:11:25;;;;;;;10.70;6.90;;;19.30;1.00;;;;;;5072042;28;20534;-81
2024/03/22 09:14:35;;;;;;;13.07;7.38;;;20.20;1.00;;;;;;5073300;28;20107;-81
2024/03/22 09:17:21;;;;;;;12.63;7.65;;;20.00;1.00;;;;;;5070044;28;20048;-80
2024/03/22 09:20:08;;;;;;;11.40;7.18;;;19.30;1.00;;;;;;5072994;28;20054;-81
2024/03/22 09:22:59;;;;;;;11.85;6.72;;;19.10;1.00;;;;;;5058666;28;20036;-80
2024/03/22 09:25:49;;;;;;;11.85;7.00;;;19.10;1.00;;;;;;5074606;28;20044;-81
2024/03/22 09:28:35;;;;;;;11.57;6.95;;;19.80;1.00;;;;;;5076611;28;20443;-85
2024/03/22 09:31:22;;;;;;;12.60;7.10;;;19.50;1.00;;;;;;5074278;28;20036;-85
2024/03/22 09:34:08;;;;;;;12.25;6.57;;;19.90;1.00;;;;;;5076890;28;20051;-79
2024/03/22 09:36:56;;;;;;;10.45;6.05;;;20.50;1.00;;;;;;5059414;28;20143;-83
2024/03/22 09:39:42;;;;;;;9.38;5.85;;;21.30;1.00;;;;;;5074723;28;20074;-83
2024/03/22 09:42:32;;;;;;;11.85;6.65;;;21.30;1.00;;;;;;5081405;28;20044;-81
2024/03/22 09:45:20;;;;;;;10.27;6.18;;;21.40;1.00;;;;;;5071837;28;20184;-80
2024/03/22 09:48:06;;;;;;;10.07;6.20;;;21.10;1.00;;;;;;5068008;28;20050;-81
2024/03/22 09:50:53;;;;;;;12.85;5.85;;;20.40;1.00;;;;;;5074701;28;20060;-79
2024/03/22 09:53:40;;;;;;;9.48;6.28;;;20.10;1.00;;;;;;5058544;28;20051;-82
2024/03/22 09:56:29;;;;;;;10.60;6.43;;;20.30;1.00;;;;;;5073074;28;20058;-81
2024/03/22 09:59:15;;;;;;;9.57;6.32;;;19.70;1.00;;;;;;5058084;28;20104;-81
2024/03/22 10:02:03;;;;;;;9.05;5.65;;;20.10;1.00;;;;;;5073116;28;20044;-84
2024/03/22 10:04:51;;;;;;;7.50;5.13;;;21.20;1.00;;;;;;5066227;28;20044;-81
2024/03/22 10:07:41;;;;;;;9.23;6.20;;;22.00;1.00;;;;;;5071846;28;20047;-82
2024/03/22 10:10:28;;;;;;;10.95;5.93;;;22.00;1.00;;;;;;5058645;28;20105;-82
2024/03/22 10:13:14;;;;;;;9.55;5.68;;;21.10;1.00;;;;;;5073993;28;20040;-82
2024/03/22 10:16:00;;;;;;;10.15;6.28;;;20.30;1.00;;;;;;5078036;28;20058;-84
2024/03/22 10:18:48;;;;;;;12.68;6.43;;;19.90;1.00;;;;;;5061496;28;20051;-82
2024/03/22 10:21:34;;;;;;;7.25;4.95;;;19.40;1.00;;;;;;5066305;28;20048;-81
2024/03/22 10:24:20;;;;;;;10.32;5.82;;;19.90;1.00;;;;;;5083300;28;20052;-80
2024/03/22 10:27:08;;;;;;;9.52;5.38;;;20.60;1.00;;;;;;5076856;28;20059;-82
2024/03/22 10:29:55;;;;;;;6.47;4.60;;;21.30;1.00;;;;;;5074586;28;20044;-81
2024/03/22 10:32:45;;;;;;;8.88;5.00;;;22.10;1.00;;;;;;5074670;28;20044;-84
2024/03/22 10:35:33;;;;;;;11.27;5.32;;;22.70;1.00;;;;;;5060028;28;20044;-82
2024/03/22 10:38:20;;;;;;;7.47;5.25;;;22.10;1.00;;;;;;5078933;28;20044;-82
2024/03/22 10:41:07;;;;;;;9.73;5.72;;;22.20;1.00;;;;;;5071276;28;20054;-82
2024/03/22 10:43:53;;;;;;;7.95;5.13;;;22.40;1.00;;;;;;5084184;28;20077;-82
2024/03/22 10:46:47;;;;;;;9.00;5.22;;;22.10;1.00;;;;;;5079709;28;20040;-80
2024/03/22 10:49:37;;;;;;;8.23;5.78;;;22.20;1.00;;;;;;5085129;28;20459;-81
2024/03/22 10:52:24;;;;;;;9.95;5.78;;;21.90;1.00;;;;;;5088538;28;20056;-82
2024/03/22 10:55:17;;;;;;;12.02;5.70;;;21.50;1.00;;;;;;5074695;28;20048;-82
2024/03/22 10:58:04;;;;;;;8.35;4.65;;;21.80;1.00;;;;;;5090553;28;20048;-82
2024/03/22 11:00:58;;;;;;;8.68;5.15;;;22.00;1.00;;;;;;5099431;28;20048;-82
2024/03/22 11:03:44;;;;;;;6.90;5.22;;;22.50;1.00;;;;;;5088541;28;20032;-81
2024/03/22 11:06:32;;;;;;;6.70;5.13;;;21.80;1.00;;;;;;5080218;28;20032;-78
2024/03/22 11:09:27;;;;;;;8.90;5.88;;;21.10;1.00;;;;;;5084409;28;20048;-82
2024/03/22 11:12:15;;;;;;;11.68;5.85;;;20.80;1.00;;;;;;5082002;28;20128;-82
2024/03/22 11:15:02;;;;;;;8.95;5.97;;;20.10;1.00;;;;;;5071606;28;20131;-83
2024/03/22 11:17:49;;;;;;;10.73;6.47;;;19.90;1.00;;;;;;5059320;28;20131;-81
2024/03/22 11:20:38;;;;;;;10.38;7.20;;;21.20;1.00;;;;;;5076676;28;20050;-83
2024/03/22 11:23:25;;;;;;;9.95;6.35;;;21.30;1.00;;;;;;5072156;28;20056;-81
2024/03/22 11:26:12;;;;;;;11.65;7.10;;;21.50;1.00;;;;;;5056761;28;20043;-80
2024/03/22 11:28:59;;;;;;;10.02;6.43;;;22.40;1.00;;;;;;5069769;28;20048;-80
2024/03/22 11:31:45;;;;;;;13.48;6.80;;;23.70;1.00;;;;;;5073316;28;20062;-81
2024/03/22 11:34:32;;;;;;;9.45;6.18;;;23.60;1.00;;;;;;5071597;28;20048;-81
2024/03/22 11:37:18;;;;;;;10.27;6.55;;;23.30;1.00;;;;;;5071409;28;20436;-82
2024/03/22 11:40:06;;;;;;;12.00;5.20;;;22.90;1.00;;;;;;5070875;28;20051;-80
2024/03/22 11:42:55;;;;;;;9.80;5.57;;;23.00;1.00;;;;;;5080880;28;20043;-82
2024/03/22 11:45:43;;;;;;;10.25;5.80;;;23.80;1.00;;;;;;5070509;28;20044;-81
2024/03/22 11:48:29;;;;;;;7.63;5.00;;;23.80;1.00;;;;;;5076208;28;20413;-80
2024/03/22 11:51:16;;;;;;;8.65;5.68;;;23.40;1.00;;;;;;5080096;28;20679;-81
2024/03/22 11:54:03;;;;;;;9.13;5.00;;;24.80;1.00;;;;;;5059533;28;20048;-79
2024/03/22 11:56:50;;;;;;;8.40;5.75;;;25.70;1.00;;;;;;5067430;28;20472;-82
2024/03/22 11:59:40;;;;;;;10.57;6.65;;;26.30;1.00;;;;;;5071595;28;20051;-80
2024/03/22 12:02:27;;;;;;;10.77;5.63;;;24.60;1.00;;;;;;5071499;28;20066;-80
2024/03/22 12:05:14;;;;;;;9.90;5.35;;;23.20;1.00;;;;;;5076907;28;20040;-82
2024/03/22 12:08:00;;;;;;;9.95;5.50;;;23.30;1.00;;;;;;5075683;28;20054;-83
2024/03/22 12:10:47;;;;;;;12.57;5.93;;;23.50;1.00;;;;;;5077491;28;20052;-81
2024/03/22 12:13:33;;;;;;;9.30;5.75;;;22.60;1.00;;;;;;5077143;28;20050;-79
2024/03/22 12:16:20;;;;;;;8.88;5.20;;;21.90;1.00;;;;;;5076519;28;20100;-81
2024/03/22 12:19:07;;;;;;;9.52;4.50;;;22.10;1.00;;;;;;5077536;28;20047;-81
2024/03/22 12:21:53;;;;;;;11.40;5.40;;;22.20;1.00;;;;;;5086009;28;20040;-82
2024/03/22 12:24:40;;;;;;;8.77;5.85;;;21.80;1.00;;;;;;5064271;28;20050;-80
2024/03/22 12:27:26;;;;;;;11.60;5.18;;;21.80;1.00;;;;;;5083826;28;20028;-80
2024/03/22 12:30:13;;;;;;;10.20;5.85;;;21.80;1.00;;;;;;5100690;28;20042;-82
2024/03/22 12:33:00;;;;;;;11.25;5.65;;;21.90;1.00;;;;;;5078799;28;20100;-83
2024/03/22 12:35:48;;;;;;;7.70;4.97;;;22.40;1.00;;;;;;5075847;28;20048;-82
2024/03/22 12:38:34;;;;;;;9.00;5.28;;;23.20;1.00;;;;;;5073017;28;20044;-81
2024/03/22 12:41:21;;;;;;;6.95;4.90;;;23.60;1.00;;;;;;5073835;28;20044;-80
2024/03/22 12:44:07;;;;;;;7.65;4.63;;;24.00;1.00;;;;;;5073572;28;20046;-81
2024/03/22 12:46:56;;;;;;;7.72;4.07;;;24.40;1.00;;;;;;5072835;28;20045;-80
2024/03/22 12:49:42;;;;;;;9.20;4.80;;;24.10;1.00;;;;;;5072802;28;20044;-81
2024/03/22 12:52:29;;;;;;;8.68;4.53;;;23.90;1.00;;;;;;5074150;28;20526;-81
2024/03/22 12:55:15;;;;;;;9.55;4.20;;;23.20;1.00;;;;;;5077115;28;20095;-81
2024/03/22 12:58:02;;;;;;;7.70;4.40;;;21.80;1.00;;;;;;5083969;28;20061;-80
2024/03/22 13:00:49;;;;;;;7.05;4.93;;;21.10;1.00;;;;;;5090391;28;20100;-82
2024/03/22 13:03:35;;;;;;;7.97;4.70;;;21.20;1.00;;;;;;5074811;28;20476;-81
2024/03/22 13:06:22;;;;;;;8.10;4.00;;;21.80;1.00;;;;;;5075512;28;20066;-82
2024/03/22 13:09:09;;;;;;;8.07;4.95;;;22.70;1.00;;;;;;5087887;28;20076;-81
2024/03/22 13:11:55;;;;;;;8.75;4.47;;;22.10;1.00;;;;;;5065509;28;20040;-82
2024/03/22 13:14:44;;;;;;;7.68;3.67;;;22.70;1.00;;;;;;5067346;28;20044;-83
2024/03/22 13:17:30;;;;;;;7.28;4.47;;;23.30;1.00;;;;;;5076372;28;20537;-82
2024/03/22 13:20:18;;;;;;;7.47;4.13;;;24.00;1.00;;;;;;5074050;28;20385;-81
2024/03/22 13:23:04;;;;;;;6.65;3.90;;;24.10;1.00;;;;;;5072538;28;20047;-84
2024/03/22 13:25:51;;;;;;;8.20;3.50;;;24.50;1.00;;;;;;5072491;28;20113;-84
2024/03/22 13:28:38;;;;;;;6.50;2.90;;;23.90;1.00;;;;;;5071934;28;20044;-78
2024/03/22 13:31:25;;;;;;;5.28;3.15;;;23.10;1.00;;;;;;5072752;28;20051;-85
2024/03/22 13:34:11;;;;;;;7.10;3.10;;;22.40;1.00;;;;;;5072511;28;20055;-81
2024/03/22 13:36:58;;;;;;;6.07;2.78;;;22.10;1.00;;;;;;5052374;28;20044;-82
2024/03/22 13:39:51;;;;;;;5.05;2.92;;;22.50;1.00;;;;;;5073377;28;20416;-80
2024/03/22 13:42:37;;;;;;;7.43;2.40;;;21.60;1.00;;;;;;5083655;28;20058;-80
2024/03/22 13:45:24;;;;;;;4.22;2.45;;;21.20;1.00;;;;;;5078952;28;20055;-84
2024/03/22 13:48:12;;;;;;;4.57;2.35;;;21.70;1.00;;;;;;5073072;28;20048;-83
2024/03/22 13:50:58;;;;;;;5.00;2.50;;;22.10;1.00;;;;;;5082927;28;20046;-81
2024/03/22 13:53:45;;;;;;;4.88;2.33;;;21.90;1.00;;;;;;5074121;28;20040;-82
2024/03/22 13:56:31;;;;;;;7.55;2.65;;;21.60;1.00;;;;;;5079055;28;20704;-82
2024/03/22 13:59:19;;;;;;;4.10;2.60;;;22.10;1.00;;;;;;5065120;28;20048;-81
2024/03/22 14:02:07;;;;;;;3.90;2.28;;;23.10;1.00;;;;;;5074714;28;20051;-83
2024/03/22 14:04:53;;;;;;;3.63;2.10;;;24.20;1.00;;;;;;5073029;28;20054;-84
2024/03/22 14:07:41;;;;;;;5.90;2.00;;;23.60;1.00;;;;;;5072153;28;20047;-83
2024/03/22 14:10:29;;;;;;;6.28;1.90;;;23.80;1.00;;;;;;5074112;28;20121;-80
2024/03/22 14:13:16;;;;;;;2.58;1.50;;;24.20;1.00;;;;;;5073656;28;20050;-82
2024/03/22 14:16:03;;;;;;;2.63;1.40;;;24.90;1.00;;;;;;5073171;28;20048;-81
2024/03/22 14:18:49;;;;;;;2.38;1.50;;;26.30;1.00;;;;;;5081919;28;20101;-83
2024/03/22 14:21:38;;;;;;;3.17;0.95;;;27.80;1.00;;;;;;5053777;28;20055;-81
2024/03/22 14:24:24;;;;;;;6.72;1.50;;;28.60;1.00;;;;;;5082774;28;20048;-83
2024/03/22 14:27:11;;;;;;;1.48;0.98;;;27.50;1.00;;;;;;5080197;28;20046;-83